Time;durP1;ratioP1;P1;durP2;ratioP2;P2;SDS_P1;SDS_P2;PMS_P1;PMS_P2;Temp;Humidity;BMP_temperature;BMP_pressure;BME280_temperature;BME280_humidity;BME280_pressure;Samples;Min_cycle;Max_cycle;Signal;HPM_P1;HPM_P2
2023/12/29 00:00:06;;;;;;;;;;;;;;;;;;5117611;28;20015;-42
2023/12/29 00:02:32;;;;;;;;;;;;;;;;;;5117188;28;19924;-42
2023/12/29 00:04:58;;;;;;;;;;;;;;;;;;5117834;28;19946;-42
2023/12/29 00:07:24;;;;;;;;;;;;;;;;;;5117462;28;19952;-41
2023/12/29 00:09:50;;;;;;;;;;;;;;;;;;5117130;28;20359;-43
2023/12/29 00:12:17;;;;;;;;;;;;;;;;;;5117497;28;19930;-42
2023/12/29 00:14:43;;;;;;;;;;;;;;;;;;5116420;28;20284;-41
2023/12/29 00:17:09;;;;;;;;;;;;;;;;;;5116705;28;20329;-41
2023/12/29 00:19:35;;;;;;;;;;;;;;;;;;5116109;27;19976;-41
2023/12/29 00:22:02;;;;;;;;;;;;;;;;;;5116700;28;19971;-42
2023/12/29 00:24:31;;;;;;;;;;;;;;;;;;5116217;28;19923;-41
2023/12/29 00:26:58;;;;;;;;;;;;;;;;;;5116768;28;20398;-42
2023/12/29 00:29:24;;;;;;;;;;;;;;;;;;5116826;28;19985;-42
2023/12/29 00:31:50;;;;;;;;;;;;;;;;;;5116648;28;19947;-43
2023/12/29 00:34:16;;;;;;;;;;;;;;;;;;5116965;28;20006;-42
2023/12/29 00:36:43;;;;;;;;;;;;;;;;;;5116469;28;19928;-43
2023/12/29 00:39:09;;;;;;;;;;;;;;;;;;5116075;28;19923;-41
2023/12/29 00:41:35;;;;;;;;;;;;;;;;;;5116809;28;19924;-41
2023/12/29 00:44:01;;;;;;;;;;;;;;;;;;5116907;28;20034;-42
2023/12/29 00:46:27;;;;;;;;;;;;;;;;;;5116447;28;19924;-41
2023/12/29 00:48:53;;;;;;;;;;;;;;;;;;5116905;28;19957;-41
2023/12/29 00:51:20;;;;;;;;;;;;;;;;;;5116690;28;20022;-41
2023/12/29 00:53:46;;;;;;;;;;;;;;;;;;5116689;28;19924;-43
2023/12/29 00:56:12;;;;;;;;;;;;;;;;;;5116365;28;20396;-41
2023/12/29 00:58:38;;;;;;;;;;;;;;;;;;5116123;28;19924;-42
2023/12/29 01:01:04;;;;;;;;;;;;;;;;;;5116524;28;20411;-42
2023/12/29 01:03:31;;;;;;;;;;;;;;;;;;5116042;28;19931;-41
2023/12/29 01:05:57;;;;;;;;;;;;;;;;;;5116257;28;20375;-43
2023/12/29 01:08:23;;;;;;;;;;;;;;;;;;5116317;28;20155;-44
2023/12/29 01:10:49;;;;;;;;;;;;;;;;;;5114863;28;19924;-43
2023/12/29 01:13:15;;;;;;;;;;;;;;;;;;5116285;28;19928;-44
2023/12/29 01:15:45;;;;;;;;;;;;;;;;;;5115602;28;19930;-44
2023/12/29 01:18:11;;;;;;;;;;;;;;;;;;5116283;28;19928;-42
2023/12/29 01:20:39;;;;;;;;;;;;;;;;;;5115758;28;19928;-45
2023/12/29 01:23:05;;;;;;;;;;;;;;;;;;5115850;28;19981;-43
2023/12/29 01:25:31;;;;;;;;;;;;;;;;;;5115958;28;19924;-43
2023/12/29 01:27:57;;;;;;;;;;;;;;;;;;5115240;28;19934;-42
2023/12/29 01:30:24;;;;;;;;;;;;;;;;;;5116153;28;20359;-42
2023/12/29 01:32:50;;;;;;;;;;;;;;;;;;5116053;28;19931;-43
2023/12/29 01:35:16;;;;;;;;;;;;;;;;;;5115665;28;20329;-41
2023/12/29 01:37:44;;;;;;;;;;;;;;;;;;5115601;28;19924;-41
2023/12/29 01:40:10;;;;;;;;;;;;;;;;;;5115402;27;19924;-42
2023/12/29 01:42:36;;;;;;;;;;;;;;;;;;5115702;28;19924;-43
2023/12/29 01:45:02;;;;;;;;;;;;;;;;;;5115411;28;19927;-41
2023/12/29 01:47:29;;;;;;;;;;;;;;;;;;5115688;28;20359;-41
2023/12/29 01:49:55;;;;;;;;;;;;;;;;;;5115621;28;19935;-42
2023/12/29 01:52:21;;;;;;;;;;;;;;;;;;5115202;28;20140;-41
2023/12/29 01:54:47;;;;;;;;;;;;;;;;;;5115625;28;19968;-42
2023/12/29 01:57:13;;;;;;;;;;;;;;;;;;5115559;28;19924;-43
2023/12/29 01:59:40;;;;;;;;;;;;;;;;;;5115137;28;19928;-42
2023/12/29 02:02:06;;;;;;;;;;;;;;;;;;5115185;28;19923;-41
2023/12/29 02:04:32;;;;;;;;;;;;;;;;;;5115015;28;19924;-40
2023/12/29 02:06:59;;;;;;;;;;;;;;;;;;5115213;28;20407;-42
2023/12/29 02:09:25;;;;;;;;;;;;;;;;;;5114856;28;19986;-41
2023/12/29 02:11:51;;;;;;;;;;;;;;;;;;5115108;28;19923;-41
2023/12/29 02:14:17;;;;;;;;;;;;;;;;;;5114991;28;19931;-42
2023/12/29 02:16:43;;;;;;;;;;;;;;;;;;5114700;28;19924;-41
2023/12/29 02:19:09;;;;;;;;;;;;;;;;;;5115210;28;20001;-46
2023/12/29 02:21:35;;;;;;;;;;;;;;;;;;5114462;28;20332;-43
2023/12/29 02:24:02;;;;;;;;;;;;;;;;;;5114527;28;19927;-45
2023/12/29 02:26:28;;;;;;;;;;;;;;;;;;5115058;28;19928;-43
2023/12/29 02:28:54;;;;;;;;;;;;;;;;;;5113983;28;19951;-42
2023/12/29 02:31:20;;;;;;;;;;;;;;;;;;5114927;28;19924;-41
2023/12/29 02:33:46;;;;;;;;;;;;;;;;;;5114918;28;19923;-44
2023/12/29 02:36:13;;;;;;;;;;;;;;;;;;5114483;28;19930;-40
2023/12/29 02:38:39;;;;;;;;;;;;;;;;;;5114536;27;19980;-42
2023/12/29 02:41:06;;;;;;;;;;;;;;;;;;5114224;28;19939;-43
2023/12/29 02:43:32;;;;;;;;;;;;;;;;;;5114399;28;19924;-44
2023/12/29 02:45:58;;;;;;;;;;;;;;;;;;5114212;28;19927;-44
2023/12/29 02:48:24;;;;;;;;;;;;;;;;;;5114628;28;19932;-43
2023/12/29 02:50:51;;;;;;;;;;;;;;;;;;5114442;28;19923;-42
2023/12/29 02:53:17;;;;;;;;;;;;;;;;;;5113982;28;20411;-42
2023/12/29 02:55:43;;;;;;;;;;;;;;;;;;5114466;28;19930;-42
2023/12/29 02:58:09;;;;;;;;;;;;;;;;;;5114342;28;19955;-41
2023/12/29 03:00:35;;;;;;;;;;;;;;;;;;5113711;28;19950;-42
2023/12/29 03:03:02;;;;;;;;;;;;;;;;;;5114049;28;19930;-44
2023/12/29 03:05:28;;;;;;;;;;;;;;;;;;5114142;28;20380;-42
2023/12/29 03:07:54;;;;;;;;;;;;;;;;;;5114006;28;20382;-41
2023/12/29 03:10:20;;;;;;;;;;;;;;;;;;5113830;28;19955;-43
2023/12/29 03:12:47;;;;;;;;;;;;;;;;;;5114036;28;19924;-41
2023/12/29 03:15:13;;;;;;;;;;;;;;;;;;5113660;28;19923;-42
2023/12/29 03:17:39;;;;;;;;;;;;;;;;;;5113634;28;20272;-43
2023/12/29 03:20:06;;;;;;;;;;;;;;;;;;5114019;28;19981;-41
2023/12/29 03:22:32;;;;;;;;;;;;;;;;;;5113732;28;19930;-43
2023/12/29 03:24:58;;;;;;;;;;;;;;;;;;5113460;28;19952;-41
2023/12/29 03:27:25;;;;;;;;;;;;;;;;;;5113891;28;19924;-42
2023/12/29 03:29:51;;;;;;;;;;;;;;;;;;5113246;28;19924;-40
2023/12/29 03:32:17;;;;;;;;;;;;;;;;;;5113416;28;19928;-41
2023/12/29 03:34:44;;;;;;;;;;;;;;;;;;5113393;28;19931;-41
2023/12/29 03:37:10;;;;;;;;;;;;;;;;;;5113453;28;19932;-43
2023/12/29 03:39:36;;;;;;;;;;;;;;;;;;5113317;28;19927;-42
2023/12/29 03:42:03;;;;;;;;;;;;;;;;;;5113314;28;19924;-42
2023/12/29 03:44:29;;;;;;;;;;;;;;;;;;5113570;28;19973;-42
2023/12/29 03:46:55;;;;;;;;;;;;;;;;;;5113057;28;20384;-43
2023/12/29 03:49:21;;;;;;;;;;;;;;;;;;5113151;28;19957;-44
2023/12/29 03:51:47;;;;;;;;;;;;;;;;;;5112980;28;19924;-42
2023/12/29 03:54:14;;;;;;;;;;;;;;;;;;5112726;28;19999;-42
2023/12/29 03:56:40;;;;;;;;;;;;;;;;;;5113177;28;19924;-41
2023/12/29 03:59:06;;;;;;;;;;;;;;;;;;5113249;28;19981;-42
2023/12/29 04:01:32;;;;;;;;;;;;;;;;;;5112347;28;19979;-43
2023/12/29 04:03:58;;;;;;;;;;;;;;;;;;5112752;28;19972;-43
2023/12/29 04:06:24;;;;;;;;;;;;;;;;;;5113396;28;19982;-41
2023/12/29 04:08:51;;;;;;;;;;;;;;;;;;5113417;28;19924;-41
2023/12/29 04:11:17;;;;;;;;;;;;;;;;;;5113147;28;19927;-42
2023/12/29 04:13:43;;;;;;;;;;;;;;;;;;5113240;28;20339;-44
2023/12/29 04:16:09;;;;;;;;;;;;;;;;;;5113065;28;19924;-43
2023/12/29 04:18:35;;;;;;;;;;;;;;;;;;5113007;28;19923;-41
2023/12/29 04:21:02;;;;;;;;;;;;;;;;;;5113330;28;20022;-43
2023/12/29 04:23:28;;;;;;;;;;;;;;;;;;5112731;28;20344;-41
2023/12/29 04:25:54;;;;;;;;;;;;;;;;;;5113246;28;19932;-43
2023/12/29 04:28:20;;;;;;;;;;;;;;;;;;5112386;28;19928;-40
2023/12/29 04:30:46;;;;;;;;;;;;;;;;;;5112140;28;19932;-41
2023/12/29 04:33:13;;;;;;;;;;;;;;;;;;5111827;28;20364;-43
2023/12/29 04:35:39;;;;;;;;;;;;;;;;;;5111966;28;19928;-42
2023/12/29 04:38:06;;;;;;;;;;;;;;;;;;5111972;28;19924;-42
2023/12/29 04:40:32;;;;;;;;;;;;;;;;;;5112078;28;19931;-42
2023/12/29 04:42:58;;;;;;;;;;;;;;;;;;5112407;28;19977;-41
2023/12/29 04:45:25;;;;;;;;;;;;;;;;;;5114708;28;20267;-41
2023/12/29 04:47:51;;;;;;;;;;;;;;;;;;5116288;28;20364;-41
2023/12/29 04:50:17;;;;;;;;;;;;;;;;;;5116301;28;19928;-40
2023/12/29 04:52:43;;;;;;;;;;;;;;;;;;5116590;28;19924;-43
2023/12/29 04:55:09;;;;;;;;;;;;;;;;;;5116396;28;19989;-42
2023/12/29 04:57:36;;;;;;;;;;;;;;;;;;5116363;28;19923;-46
2023/12/29 05:00:02;;;;;;;;;;;;;;;;;;5116469;28;19924;-42
2023/12/29 05:02:28;;;;;;;;;;;;;;;;;;5116161;28;19928;-43
2023/12/29 05:04:55;;;;;;;;;;;;;;;;;;5115440;28;19973;-41
2023/12/29 05:07:21;;;;;;;;;;;;;;;;;;5116421;28;20030;-42
2023/12/29 05:09:47;;;;;;;;;;;;;;;;;;5116210;28;19927;-42
2023/12/29 05:12:13;;;;;;;;;;;;;;;;;;5116385;28;19924;-41
2023/12/29 05:14:39;;;;;;;;;;;;;;;;;;5116223;28;19973;-40
2023/12/29 05:17:06;;;;;;;;;;;;;;;;;;5116267;28;20344;-42
2023/12/29 05:19:32;;;;;;;;;;;;;;;;;;5115832;28;20441;-43
2023/12/29 05:21:58;;;;;;;;;;;;;;;;;;5116065;28;19974;-42
2023/12/29 05:24:24;;;;;;;;;;;;;;;;;;5116225;28;19924;-42
2023/12/29 05:26:51;;;;;;;;;;;;;;;;;;5116085;28;19928;-41
2023/12/29 05:29:17;;;;;;;;;;;;;;;;;;5115509;28;20003;-44
2023/12/29 05:31:43;;;;;;;;;;;;;;;;;;5115809;28;19959;-42
2023/12/29 05:34:09;;;;;;;;;;;;;;;;;;5115436;27;19959;-42
2023/12/29 05:36:36;;;;;;;;;;;;;;;;;;5115803;28;19973;-41
2023/12/29 05:39:03;;;;;;;;;;;;;;;;;;5115597;28;20413;-41
2023/12/29 05:41:29;;;;;;;;;;;;;;;;;;5115769;28;19959;-42
2023/12/29 05:43:57;;;;;;;;;;;;;;;;;;5115410;28;20003;-43
2023/12/29 05:46:23;;;;;;;;;;;;;;;;;;5115128;27;20413;-42
2023/12/29 05:48:52;;;;;;;;;;;;;;;;;;5115792;28;19989;-41
2023/12/29 05:51:18;;;;;;;;;;;;;;;;;;5115652;28;19931;-43
2023/12/29 05:53:44;;;;;;;;;;;;;;;;;;5115712;28;19972;-41
2023/12/29 05:56:10;;;;;;;;;;;;;;;;;;5114837;28;19924;-42
2023/12/29 05:58:36;;;;;;;;;;;;;;;;;;5115223;28;20014;-43
2023/12/29 06:01:05;;;;;;;;;;;;;;;;;;5114622;28;21295;-42
2023/12/29 06:03:32;;;;;;;;;;;;;;;;;;5114892;28;20259;-41
2023/12/29 06:05:58;;;;;;;;;;;;;;;;;;5114680;28;20027;-43
2023/12/29 06:08:24;;;;;;;;;;;;;;;;;;5115259;28;20280;-42
2023/12/29 06:10:50;;;;;;;;;;;;;;;;;;5114876;28;19924;-43
2023/12/29 06:13:16;;;;;;;;;;;;;;;;;;5115324;28;19973;-41
2023/12/29 06:15:43;;;;;;;;;;;;;;;;;;5114743;27;19924;-42
2023/12/29 06:18:09;;;;;;;;;;;;;;;;;;5115083;28;19947;-43
2023/12/29 06:20:35;;;;;;;;;;;;;;;;;;5115204;28;19927;-41
2023/12/29 06:23:01;;;;;;;;;;;;;;;;;;5114977;28;20363;-41
2023/12/29 06:25:27;;;;;;;;;;;;;;;;;;5114966;28;20325;-41
2023/12/29 06:27:54;;;;;;;;;;;;;;;;;;5114672;28;19924;-42
2023/12/29 06:30:20;;;;;;;;;;;;;;;;;;5114246;28;19931;-40
2023/12/29 06:32:46;;;;;;;;;;;;;;;;;;5114806;28;19928;-43
2023/12/29 06:35:13;;;;;;;;;;;;;;;;;;5114144;28;20432;-42
2023/12/29 06:37:39;;;;;;;;;;;;;;;;;;5114376;28;19927;-41
2023/12/29 06:40:06;;;;;;;;;;;;;;;;;;5114325;28;19973;-41
2023/12/29 06:42:32;;;;;;;;;;;;;;;;;;5114505;28;19931;-43
2023/12/29 06:44:58;;;;;;;;;;;;;;;;;;5114279;27;19938;-42
2023/12/29 06:47:24;;;;;;;;;;;;;;;;;;5114695;28;19924;-41
2023/12/29 06:49:50;;;;;;;;;;;;;;;;;;5114483;28;20018;-43
2023/12/29 06:52:17;;;;;;;;;;;;;;;;;;5114321;27;20010;-44
2023/12/29 06:54:43;;;;;;;;;;;;;;;;;;5114503;28;19972;-42
2023/12/29 06:57:09;;;;;;;;;;;;;;;;;;5114303;28;19961;-40
2023/12/29 06:59:35;;;;;;;;;;;;;;;;;;5114077;28;20316;-41
2023/12/29 07:02:01;;;;;;;;;;;;;;;;;;5114024;28;20367;-43
2023/12/29 07:04:27;;;;;;;;;;;;;;;;;;5114046;28;19931;-43
2023/12/29 07:06:54;;;;;;;;;;;;;;;;;;5113520;28;19924;-41
2023/12/29 07:09:20;;;;;;;;;;;;;;;;;;5109742;28;19924;-40
2023/12/29 07:11:46;;;;;;;;;;;;;;;;;;5101365;28;19924;-42
2023/12/29 07:14:12;;;;;;;;;;;;;;;;;;5109636;28;19924;-42
2023/12/29 07:16:38;;;;;;;;;;;;;;;;;;5113783;28;19978;-42
2023/12/29 07:19:04;;;;;;;;;;;;;;;;;;5113400;28;19988;-43
2023/12/29 07:21:31;;;;;;;;;;;;;;;;;;5114125;28;19924;-44
2023/12/29 07:23:57;;;;;;;;;;;;;;;;;;5113742;28;19981;-42
2023/12/29 07:26:23;;;;;;;;;;;;;;;;;;5113633;28;19924;-41
2023/12/29 07:28:53;;;;;;;;;;;;;;;;;;5113799;28;19980;-41
2023/12/29 07:31:20;;;;;;;;;;;;;;;;;;5113739;28;19924;-41
2023/12/29 07:33:46;;;;;;;;;;;;;;;;;;5110383;28;20072;-43
2023/12/29 07:36:12;;;;;;;;;;;;;;;;;;5113273;28;19928;-42
2023/12/29 07:38:40;;;;;;;;;;;;;;;;;;5113232;28;19924;-41
2023/12/29 07:41:06;;;;;;;;;;;;;;;;;;5113339;28;19924;-40
2023/12/29 07:43:32;;;;;;;;;;;;;;;;;;5113416;28;20052;-41
2023/12/29 07:45:58;;;;;;;;;;;;;;;;;;5113379;28;19981;-43
2023/12/29 07:48:24;;;;;;;;;;;;;;;;;;5113825;28;19928;-41
2023/12/29 07:50:51;;;;;;;;;;;;;;;;;;5107942;28;20014;-42
2023/12/29 07:53:17;;;;;;;;;;;;;;;;;;5109037;28;20341;-42
2023/12/29 07:55:43;;;;;;;;;;;;;;;;;;5113242;28;19985;-43
2023/12/29 07:58:10;;;;;;;;;;;;;;;;;;5113466;28;19928;-43
2023/12/29 08:00:37;;;;;;;;;;;;;;;;;;5113300;28;20009;-42
2023/12/29 08:03:04;;;;;;;;;;;;;;;;;;5113380;28;20022;-41
2023/12/29 08:05:30;;;;;;;;;;;;;;;;;;5113337;28;19924;-43
2023/12/29 08:07:56;;;;;;;;;;;;;;;;;;5113143;28;20383;-43
2023/12/29 08:10:23;;;;;;;;;;;;;;;;;;5112771;28;19924;-43
2023/12/29 08:12:49;;;;;;;;;;;;;;;;;;5113348;28;19923;-41
2023/12/29 08:15:15;;;;;;;;;;;;;;;;;;5113065;28;19931;-42
2023/12/29 08:17:41;;;;;;;;;;;;;;;;;;5113470;28;19923;-42
2023/12/29 08:20:08;;;;;;;;;;;;;;;;;;5115868;28;19953;-44
2023/12/29 08:22:34;;;;;;;;;;;;;;;;;;5117196;28;19924;-42
2023/12/29 08:25:00;;;;;;;;;;;;;;;;;;5116884;28;20260;-42
2023/12/29 08:27:26;;;;;;;;;;;;;;;;;;5117126;28;19924;-41
2023/12/29 08:29:53;;;;;;;;;;;;;;;;;;5117319;28;19984;-42
2023/12/29 08:32:21;;;;;;;;;;;;;;;;;;5117241;28;19928;-42
2023/12/29 08:34:47;;;;;;;;;;;;;;;;;;5116692;28;19924;-44
2023/12/29 08:37:19;;;;;;;;;;;;;;;;;;5116585;28;20273;-43
2023/12/29 08:39:45;;;;;;;;;;;;;;;;;;5115944;28;19931;-43
2023/12/29 08:42:11;;;;;;;;;;;;;;;;;;5116299;28;20272;-43
2023/12/29 08:44:38;;;;;;;;;;;;;;;;;;5115931;28;20269;-43
2023/12/29 08:47:07;;;;;;;;;;;;;;;;;;5115852;28;19996;-42
2023/12/29 08:49:34;;;;;;;;;;;;;;;;;;5115873;28;20416;-42
2023/12/29 08:52:00;;;;;;;;;;;;;;;;;;5115567;28;20343;-42
2023/12/29 08:54:27;;;;;;;;;;;;;;;;;;5116115;28;19924;-42
2023/12/29 08:56:53;;;;;;;;;;;;;;;;;;5116045;28;20317;-41
2023/12/29 08:59:19;;;;;;;;;;;;;;;;;;5115848;28;20418;-46
2023/12/29 09:01:45;;;;;;;;;;;;;;;;;;5116402;28;20367;-42
2023/12/29 09:04:12;;;;;;;;;;;;;;;;;;5115895;28;19970;-45
2023/12/29 09:06:39;;;;;;;;;;;;;;;;;;5116433;28;19927;-42
2023/12/29 09:09:05;;;;;;;;;;;;;;;;;;5116388;28;19963;-41
2023/12/29 09:11:31;;;;;;;;;;;;;;;;;;5116013;28;20351;-44
2023/12/29 09:13:57;;;;;;;;;;;;;;;;;;5116407;28;20372;-42
2023/12/29 09:16:23;;;;;;;;;;;;;;;;;;5115073;28;20364;-44
2023/12/29 09:18:50;;;;;;;;;;;;;;;;;;5116060;28;19977;-43
2023/12/29 09:21:16;;;;;;;;;;;;;;;;;;5116077;28;20018;-41
2023/12/29 09:23:42;;;;;;;;;;;;;;;;;;5115601;28;19924;-42
2023/12/29 09:26:08;;;;;;;;;;;;;;;;;;5115946;28;19923;-40
2023/12/29 09:28:34;;;;;;;;;;;;;;;;;;5116085;28;19934;-42
2023/12/29 09:31:00;;;;;;;;;;;;;;;;;;5114964;28;19969;-42
2023/12/29 09:33:27;;;;;;;;;;;;;;;;;;5116095;28;19974;-41
2023/12/29 09:35:53;;;;;;;;;;;;;;;;;;5115299;28;19927;-42
2023/12/29 09:38:19;;;;;;;;;;;;;;;;;;5115849;28;20027;-42
2023/12/29 09:40:46;;;;;;;;;;;;;;;;;;5111371;28;19932;-42
2023/12/29 09:43:12;;;;;;;;;;;;;;;;;;5115757;28;19924;-43
2023/12/29 09:45:38;;;;;;;;;;;;;;;;;;5115458;28;19923;-41
2023/12/29 09:48:04;;;;;;;;;;;;;;;;;;5115393;28;20286;-42
2023/12/29 09:50:31;;;;;;;;;;;;;;;;;;5115494;28;19923;-42
2023/12/29 09:52:57;;;;;;;;;;;;;;;;;;5115611;28;19931;-43
2023/12/29 09:55:24;;;;;;;;;;;;;;;;;;5115621;28;19973;-42
2023/12/29 09:57:50;;;;;;;;;;;;;;;;;;5115439;28;19928;-42
2023/12/29 10:00:16;;;;;;;;;;;;;;;;;;5115346;28;19924;-43
2023/12/29 10:02:42;;;;;;;;;;;;;;;;;;5115150;28;19963;-42
2023/12/29 10:05:09;;;;;;;;;;;;;;;;;;5115042;28;19971;-44
2023/12/29 10:07:36;;;;;;;;;;;;;;;;;;5115445;28;19981;-43
2023/12/29 10:10:02;;;;;;;;;;;;;;;;;;5104863;28;19968;-41
2023/12/29 10:12:28;;;;;;;;;;;;;;;;;;5104686;28;19927;-41
2023/12/29 10:14:54;;;;;;;;;;;;;;;;;;5109538;28;19928;-42
2023/12/29 10:17:21;;;;;;;;;;;;;;;;;;5114673;28;19973;-42
2023/12/29 10:19:48;;;;;;;;;;;;;;;;;;5114811;28;19924;-42
2023/12/29 10:22:14;;;;;;;;;;;;;;;;;;5114979;28;19931;-42
2023/12/29 10:24:43;;;;;;;;;;;;;;;;;;5114710;28;19923;-46
2023/12/29 10:27:09;;;;;;;;;;;;;;;;;;5114960;28;19924;-41
2023/12/29 10:29:36;;;;;;;;;;;;;;;;;;5114545;28;19977;-44
2023/12/29 10:32:03;;;;;;;;;;;;;;;;;;5111144;28;19923;-43
2023/12/29 10:34:29;;;;;;;;;;;;;;;;;;5109398;28;19930;-41
2023/12/29 10:36:56;;;;;;;;;;;;;;;;;;5114431;28;20371;-44
2023/12/29 10:39:23;;;;;;;;;;;;;;;;;;5114219;28;19923;-42
2023/12/29 10:41:49;;;;;;;;;;;;;;;;;;5114082;28;19984;-41
2023/12/29 10:44:16;;;;;;;;;;;;;;;;;;5114472;28;19984;-43
2023/12/29 10:46:42;;;;;;;;;;;;;;;;;;5114058;28;19927;-40
2023/12/29 10:49:09;;;;;;;;;;;;;;;;;;5114515;28;19953;-45
2023/12/29 10:51:35;;;;;;;;;;;;;;;;;;5114096;28;20313;-41
2023/12/29 10:54:01;;;;;;;;;;;;;;;;;;5114441;28;20360;-41
2023/12/29 10:56:28;;;;;;;;;;;;;;;;;;5114476;28;19988;-42
2023/12/29 10:58:54;;;;;;;;;;;;;;;;;;5113260;28;19923;-41
2023/12/29 11:01:22;;;;;;;;;;;;;;;;;;5114220;28;19927;-42
2023/12/29 11:03:48;;;;;;;;;;;;;;;;;;5114105;28;20368;-41
2023/12/29 11:06:14;;;;;;;;;;;;;;;;;;5114129;28;20324;-42
2023/12/29 11:08:40;;;;;;;;;;;;;;;;;;5114249;28;20267;-42
2023/12/29 11:11:07;;;;;;;;;;;;;;;;;;5114058;28;20433;-42
2023/12/29 11:13:33;;;;;;;;;;;;;;;;;;5114169;28;19957;-41
2023/12/29 11:16:01;;;;;;;;;;;;;;;;;;5113572;28;19975;-41
2023/12/29 11:18:27;;;;;;;;;;;;;;;;;;5112946;28;19924;-41
2023/12/29 11:20:55;;;;;;;;;;;;;;;;;;5113787;28;19928;-44
2023/12/29 11:23:21;;;;;;;;;;;;;;;;;;5113915;28;19949;-43
2023/12/29 11:25:48;;;;;;;;;;;;;;;;;;5113578;28;19945;-43
2023/12/29 11:28:15;;;;;;;;;;;;;;;;;;5113590;28;19923;-43
2023/12/29 11:30:41;;;;;;;;;;;;;;;;;;5113283;28;20007;-42
2023/12/29 11:33:08;;;;;;;;;;;;;;;;;;5113952;28;19931;-41
2023/12/29 11:35:34;;;;;;;;;;;;;;;;;;5113933;28;19930;-42
2023/12/29 11:38:02;;;;;;;;;;;;;;;;;;5113700;28;20321;-42
2023/12/29 11:40:29;;;;;;;;;;;;;;;;;;5112779;28;19970;-41
2023/12/29 11:42:55;;;;;;;;;;;;;;;;;;5113571;28;19924;-42
2023/12/29 11:45:21;;;;;;;;;;;;;;;;;;5112534;28;19966;-44
2023/12/29 11:47:53;;;;;;;;;;;;;;;;;;5113569;28;19972;-42
2023/12/29 11:50:21;;;;;;;;;;;;;;;;;;5113556;28;19930;-45
2023/12/29 11:52:47;;;;;;;;;;;;;;;;;;5113692;28;19948;-42
2023/12/29 11:55:14;;;;;;;;;;;;;;;;;;5119163;28;19924;-42
2023/12/29 11:57:41;;;;;;;;;;;;;;;;;;5120221;27;19923;-42
2023/12/29 12:00:07;;;;;;;;;;;;;;;;;;5120487;27;20382;-43
2023/12/29 12:02:33;;;;;;;;;;;;;;;;;;5120273;27;19947;-41
2023/12/29 12:05:00;;;;;;;;;;;;;;;;;;5120437;27;19973;-42
2023/12/29 12:07:26;;;;;;;;;;;;;;;;;;5120363;27;19923;-42
2023/12/29 12:09:53;;;;;;;;;;;;;;;;;;5119856;27;19928;-41
2023/12/29 12:12:20;;;;;;;;;;;;;;;;;;5120187;27;20287;-43
2023/12/29 12:14:46;;;;;;;;;;;;;;;;;;5119663;28;20280;-41
2023/12/29 12:17:12;;;;;;;;;;;;;;;;;;5119903;27;19928;-41
2023/12/29 12:19:38;;;;;;;;;;;;;;;;;;5119758;27;19923;-42
2023/12/29 12:22:06;;;;;;;;;;;;;;;;;;5119404;27;19923;-43
2023/12/29 12:24:32;;;;;;;;;;;;;;;;;;5119502;27;20351;-43
2023/12/29 12:26:58;;;;;;;;;;;;;;;;;;5119414;28;19928;-42
2023/12/29 12:29:25;;;;;;;;;;;;;;;;;;5119782;27;20010;-41
2023/12/29 12:31:51;;;;;;;;;;;;;;;;;;5119332;28;19928;-42
2023/12/29 12:34:17;;;;;;;;;;;;;;;;;;5119546;27;19923;-42
2023/12/29 12:36:45;;;;;;;;;;;;;;;;;;5119733;27;19930;-42
2023/12/29 12:39:11;;;;;;;;;;;;;;;;;;5119301;27;19924;-43
2023/12/29 12:41:37;;;;;;;;;;;;;;;;;;5118933;27;19924;-42
2023/12/29 12:44:03;;;;;;;;;;;;;;;;;;5119803;28;19970;-40
2023/12/29 12:46:30;;;;;;;;;;;;;;;;;;5118820;27;19923;-41
2023/12/29 12:48:57;;;;;;;;;;;;;;;;;;5119528;27;20064;-42
2023/12/29 12:51:23;;;;;;;;;;;;;;;;;;5119837;27;19974;-42
2023/12/29 12:53:50;;;;;;;;;;;;;;;;;;5119847;27;19923;-43
2023/12/29 12:56:16;;;;;;;;;;;;;;;;;;5119627;27;19923;-42
2023/12/29 12:58:43;;;;;;;;;;;;;;;;;;5120000;27;19928;-45
2023/12/29 13:01:09;;;;;;;;;;;;;;;;;;5119728;27;19931;-41
2023/12/29 13:03:35;;;;;;;;;;;;;;;;;;5119790;27;19928;-42
2023/12/29 13:06:01;;;;;;;;;;;;;;;;;;5117825;27;19923;-43
2023/12/29 13:08:28;;;;;;;;;;;;;;;;;;5116342;28;20394;-42
2023/12/29 13:11:00;;;;;;;;;;;;;;;;;;5116174;28;20010;-41
2023/12/29 13:13:27;;;;;;;;;;;;;;;;;;5116349;27;20002;-41
2023/12/29 13:15:53;;;;;;;;;;;;;;;;;;5115905;28;20368;-43
2023/12/29 13:18:19;;;;;;;;;;;;;;;;;;5116374;28;19931;-45
2023/12/29 13:20:45;;;;;;;;;;;;;;;;;;5116422;28;19973;-43
2023/12/29 13:23:12;;;;;;;;;;;;;;;;;;5116199;28;19924;-42
2023/12/29 13:25:38;;;;;;;;;;;;;;;;;;5116152;28;19927;-41
2023/12/29 13:28:04;;;;;;;;;;;;;;;;;;5116073;27;19993;-43
2023/12/29 13:30:30;;;;;;;;;;;;;;;;;;5116347;28;19931;-42
2023/12/29 13:32:57;;;;;;;;;;;;;;;;;;5116283;28;19923;-42
2023/12/29 13:35:24;;;;;;;;;;;;;;;;;;5115719;28;19932;-43
2023/12/29 13:37:50;;;;;;;;;;;;;;;;;;5115843;28;19924;-44
2023/12/29 13:40:16;;;;;;;;;;;;;;;;;;5115583;28;19928;-42
2023/12/29 13:42:43;;;;;;;;;;;;;;;;;;5115204;28;20279;-42
2023/12/29 13:45:09;;;;;;;;;;;;;;;;;;5115571;28;19977;-42
2023/12/29 13:47:36;;;;;;;;;;;;;;;;;;5115171;28;20308;-42
2023/12/29 13:50:02;;;;;;;;;;;;;;;;;;5115245;28;19930;-41
2023/12/29 13:52:29;;;;;;;;;;;;;;;;;;5115787;28;19931;-44
2023/12/29 13:54:55;;;;;;;;;;;;;;;;;;5115640;28;19924;-42
2023/12/29 13:57:21;;;;;;;;;;;;;;;;;;5115677;28;20355;-42
2023/12/29 13:59:49;;;;;;;;;;;;;;;;;;5115667;28;19959;-43
2023/12/29 14:02:15;;;;;;;;;;;;;;;;;;5115417;28;19924;-40
2023/12/29 14:04:41;;;;;;;;;;;;;;;;;;5115354;28;20396;-40
2023/12/29 14:07:07;;;;;;;;;;;;;;;;;;5115279;27;19923;-42
2023/12/29 14:09:33;;;;;;;;;;;;;;;;;;5115043;28;19924;-41
2023/12/29 14:11:59;;;;;;;;;;;;;;;;;;5115235;28;19927;-40
2023/12/29 14:14:26;;;;;;;;;;;;;;;;;;5114941;28;19928;-41
2023/12/29 14:16:52;;;;;;;;;;;;;;;;;;5114030;28;20288;-44
2023/12/29 14:19:18;;;;;;;;;;;;;;;;;;5115146;28;19923;-40
2023/12/29 14:21:44;;;;;;;;;;;;;;;;;;5115141;28;19924;-40
2023/12/29 14:24:10;;;;;;;;;;;;;;;;;;5114934;28;19923;-40
2023/12/29 14:26:37;;;;;;;;;;;;;;;;;;5115036;28;19928;-41
2023/12/29 14:29:03;;;;;;;;;;;;;;;;;;5115056;28;19932;-42
2023/12/29 14:31:29;;;;;;;;;;;;;;;;;;5115037;28;19924;-41
2023/12/29 14:33:56;;;;;;;;;;;;;;;;;;5114650;28;19924;-40
2023/12/29 14:36:22;;;;;;;;;;;;;;;;;;5114350;28;19923;-40
2023/12/29 14:38:48;;;;;;;;;;;;;;;;;;5114602;28;20412;-42
2023/12/29 14:41:14;;;;;;;;;;;;;;;;;;5114457;28;19981;-41
2023/12/29 14:43:40;;;;;;;;;;;;;;;;;;5114271;28;19924;-40
2023/12/29 14:46:06;;;;;;;;;;;;;;;;;;5113372;28;19949;-40
2023/12/29 14:48:33;;;;;;;;;;;;;;;;;;5113311;28;20018;-41
2023/12/29 14:50:59;;;;;;;;;;;;;;;;;;5113520;28;20349;-40
2023/12/29 14:53:25;;;;;;;;;;;;;;;;;;5107837;28;19923;-41
2023/12/29 14:55:51;;;;;;;;;;;;;;;;;;5113878;28;19973;-40
2023/12/29 14:58:18;;;;;;;;;;;;;;;;;;5114620;28;19950;-40
2023/12/29 15:00:46;;;;;;;;;;;;;;;;;;5113922;28;19928;-41
2023/12/29 15:03:13;;;;;;;;;;;;;;;;;;5113953;28;19924;-40
2023/12/29 15:05:40;;;;;;;;;;;;;;;;;;5114038;28;20356;-41
2023/12/29 15:08:06;;;;;;;;;;;;;;;;;;5113662;28;20018;-42
2023/12/29 15:10:32;;;;;;;;;;;;;;;;;;5113828;28;19924;-41
2023/12/29 15:12:58;;;;;;;;;;;;;;;;;;5113751;28;19936;-42
2023/12/29 15:15:25;;;;;;;;;;;;;;;;;;5113773;27;19931;-41
2023/12/29 15:17:51;;;;;;;;;;;;;;;;;;5114114;28;19924;-42
2023/12/29 15:20:17;;;;;;;;;;;;;;;;;;5113981;28;19923;-41
2023/12/29 15:22:43;;;;;;;;;;;;;;;;;;5113886;28;19969;-40
2023/12/29 15:25:09;;;;;;;;;;;;;;;;;;5114022;28;19928;-42
2023/12/29 15:27:36;;;;;;;;;;;;;;;;;;5113877;28;20387;-40
2023/12/29 15:30:02;;;;;;;;;;;;;;;;;;5113185;28;19988;-40
2023/12/29 15:32:29;;;;;;;;;;;;;;;;;;5113798;28;20461;-43
2023/12/29 15:34:55;;;;;;;;;;;;;;;;;;5113736;28;19924;-40
2023/12/29 15:37:21;;;;;;;;;;;;;;;;;;5113408;28;19939;-41
2023/12/29 15:39:47;;;;;;;;;;;;;;;;;;5113355;28;19928;-41
2023/12/29 15:42:13;;;;;;;;;;;;;;;;;;5113708;27;19923;-42
2023/12/29 15:44:40;;;;;;;;;;;;;;;;;;5113495;28;19927;-43
2023/12/29 15:47:06;;;;;;;;;;;;;;;;;;5113726;28;19923;-43
2023/12/29 15:49:32;;;;;;;;;;;;;;;;;;5112963;28;19931;-41
2023/12/29 15:51:58;;;;;;;;;;;;;;;;;;5113253;28;19931;-41
2023/12/29 15:54:25;;;;;;;;;;;;;;;;;;5113088;28;19977;-41
2023/12/29 15:56:52;;;;;;;;;;;;;;;;;;5113329;28;19973;-40
2023/12/29 15:59:18;;;;;;;;;;;;;;;;;;5113306;28;19924;-42
2023/12/29 16:01:45;;;;;;;;;;;;;;;;;;5112628;28;19977;-41
2023/12/29 16:04:11;;;;;;;;;;;;;;;;;;5112652;28;20375;-42
2023/12/29 16:06:38;;;;;;;;;;;;;;;;;;5112799;28;19924;-41
2023/12/29 16:09:04;;;;;;;;;;;;;;;;;;5112195;28;19977;-45
2023/12/29 16:11:31;;;;;;;;;;;;;;;;;;5112910;28;19924;-40
2023/12/29 16:13:58;;;;;;;;;;;;;;;;;;5112371;28;19924;-41
2023/12/29 16:16:29;;;;;;;;;;;;;;;;;;5113158;28;19931;-42
2023/12/29 16:18:56;;;;;;;;;;;;;;;;;;5113482;28;19923;-42
2023/12/29 16:21:22;;;;;;;;;;;;;;;;;;5113522;28;19945;-43
2023/12/29 16:23:48;;;;;;;;;;;;;;;;;;5113293;28;19993;-43
2023/12/29 16:26:14;;;;;;;;;;;;;;;;;;5113362;28;19923;-42
2023/12/29 16:28:40;;;;;;;;;;;;;;;;;;5113331;28;19923;-42
2023/12/29 16:31:08;;;;;;;;;;;;;;;;;;5112952;28;19928;-40
2023/12/29 16:33:36;;;;;;;;;;;;;;;;;;5112686;28;19930;-41
2023/12/29 16:36:03;;;;;;;;;;;;;;;;;;5112490;28;19927;-42
2023/12/29 16:38:29;;;;;;;;;;;;;;;;;;5112505;28;19963;-40